sensor_id;sensor_type;location;lat;lon;timestamp;temperature;humidity
55634;DHT22;41504;53.162;6.788;2024-02-21T00:01:14;9.90;99.90
55634;DHT22;41504;53.162;6.788;2024-02-21T00:03:40;9.80;99.90
55634;DHT22;41504;53.162;6.788;2024-02-21T00:06:06;9.80;99.90
55634;DHT22;41504;53.162;6.788;2024-02-21T00:08:32;9.80;99.90
55634;DHT22;41504;53.162;6.788;2024-02-21T00:10:57;9.90;99.90
55634;DHT22;41504;53.162;6.788;2024-02-21T00:13:23;9.80;99.90
55634;DHT22;41504;53.162;6.788;2024-02-21T00:15:49;9.80;99.90
55634;DHT22;41504;53.162;6.788;2024-02-21T00:18:15;9.80;99.90
55634;DHT22;41504;53.162;6.788;2024-02-21T00:20:41;9.80;99.90
55634;DHT22;41504;53.162;6.788;2024-02-21T00:23:07;9.80;99.90
55634;DHT22;41504;53.162;6.788;2024-02-21T00:25:32;9.80;99.90
55634;DHT22;41504;53.162;6.788;2024-02-21T00:27:58;9.80;99.90
55634;DHT22;41504;53.162;6.788;2024-02-21T00:30:24;9.70;99.90
55634;DHT22;41504;53.162;6.788;2024-02-21T00:32:49;9.70;99.90
55634;DHT22;41504;53.162;6.788;2024-02-21T00:35:15;9.70;99.90
55634;DHT22;41504;53.162;6.788;2024-02-21T00:37:41;9.60;99.90
55634;DHT22;41504;53.162;6.788;2024-02-21T00:40:07;9.60;99.90
55634;DHT22;41504;53.162;6.788;2024-02-21T00:42:36;9.60;99.90
55634;DHT22;41504;53.162;6.788;2024-02-21T00:45:02;9.60;99.90
55634;DHT22;41504;53.162;6.788;2024-02-21T00:47:27;9.60;99.90
55634;DHT22;41504;53.162;6.788;2024-02-21T00:49:53;9.60;99.90
55634;DHT22;41504;53.162;6.788;2024-02-21T00:52:19;9.60;99.90
55634;DHT22;41504;53.162;6.788;2024-02-21T00:54:44;9.50;99.90
55634;DHT22;41504;53.162;6.788;2024-02-21T00:57:10;9.50;99.90
55634;DHT22;41504;53.162;6.788;2024-02-21T00:59:36;9.50;99.90
55634;DHT22;41504;53.162;6.788;2024-02-21T01:02:01;9.60;99.90
55634;DHT22;41504;53.162;6.788;2024-02-21T01:04:27;9.50;99.90
55634;DHT22;41504;53.162;6.788;2024-02-21T01:06:53;9.50;99.90
55634;DHT22;41504;53.162;6.788;2024-02-21T01:09:19;9.50;99.90
55634;DHT22;41504;53.162;6.788;2024-02-21T01:11:44;9.50;99.90
55634;DHT22;41504;53.162;6.788;2024-02-21T01:14:10;9.40;99.90
55634;DHT22;41504;53.162;6.788;2024-02-21T01:16:36;9.40;99.90
55634;DHT22;41504;53.162;6.788;2024-02-21T01:19:05;9.40;99.90
55634;DHT22;41504;53.162;6.788;2024-02-21T01:21:30;9.40;99.90
55634;DHT22;41504;53.162;6.788;2024-02-21T01:23:56;9.50;99.90
55634;DHT22;41504;53.162;6.788;2024-02-21T01:26:22;9.40;99.90
55634;DHT22;41504;53.162;6.788;2024-02-21T01:28:47;9.40;99.90
55634;DHT22;41504;53.162;6.788;2024-02-21T01:31:13;9.40;99.90
55634;DHT22;41504;53.162;6.788;2024-02-21T01:33:40;9.50;99.90
55634;DHT22;41504;53.162;6.788;2024-02-21T01:36:06;9.40;99.90
55634;DHT22;41504;53.162;6.788;2024-02-21T01:38:32;9.40;99.90
55634;DHT22;41504;53.162;6.788;2024-02-21T01:40:58;9.50;99.90
55634;DHT22;41504;53.162;6.788;2024-02-21T01:43:24;9.40;99.90
55634;DHT22;41504;53.162;6.788;2024-02-21T01:45:52;9.50;99.90
55634;DHT22;41504;53.162;6.788;2024-02-21T01:48:18;9.40;99.90
55634;DHT22;41504;53.162;6.788;2024-02-21T01:50:47;9.40;99.90
55634;DHT22;41504;53.162;6.788;2024-02-21T01:53:17;9.40;99.90
55634;DHT22;41504;53.162;6.788;2024-02-21T01:55:47;9.40;99.90
55634;DHT22;41504;53.162;6.788;2024-02-21T01:58:14;9.40;99.90
55634;DHT22;41504;53.162;6.788;2024-02-21T02:00:43;9.30;99.90
55634;DHT22;41504;53.162;6.788;2024-02-21T02:03:11;9.30;99.90
55634;DHT22;41504;53.162;6.788;2024-02-21T02:05:49;9.20;99.90
55634;DHT22;41504;53.162;6.788;2024-02-21T02:08:21;9.20;99.90
55634;DHT22;41504;53.162;6.788;2024-02-21T02:10:49;9.20;99.90
55634;DHT22;41504;53.162;6.788;2024-02-21T02:13:15;9.20;99.90
55634;DHT22;41504;53.162;6.788;2024-02-21T02:15:46;9.10;99.90
55634;DHT22;41504;53.162;6.788;2024-02-21T02:18:12;9.10;99.90
55634;DHT22;41504;53.162;6.788;2024-02-21T02:20:39;9.10;99.90
55634;DHT22;41504;53.162;6.788;2024-02-21T02:25:40;9.10;99.90
55634;DHT22;41504;53.162;6.788;2024-02-21T02:28:07;9.10;99.90
55634;DHT22;41504;53.162;6.788;2024-02-21T02:30:36;9.10;99.90
55634;DHT22;41504;53.162;6.788;2024-02-21T02:33:03;9.10;99.90
55634;DHT22;41504;53.162;6.788;2024-02-21T02:35:29;9.10;99.90
55634;DHT22;41504;53.162;6.788;2024-02-21T02:37:59;9.10;99.90
55634;DHT22;41504;53.162;6.788;2024-02-21T02:40:24;9.40;99.90
55634;DHT22;41504;53.162;6.788;2024-02-21T02:42:50;9.10;99.90
55634;DHT22;41504;53.162;6.788;2024-02-21T02:45:17;9.10;99.90
55634;DHT22;41504;53.162;6.788;2024-02-21T02:47:48;9.10;99.90
55634;DHT22;41504;53.162;6.788;2024-02-21T02:50:14;9.10;99.90
55634;DHT22;41504;53.162;6.788;2024-02-21T02:52:40;9.10;99.90
55634;DHT22;41504;53.162;6.788;2024-02-21T02:55:06;9.10;99.90
55634;DHT22;41504;53.162;6.788;2024-02-21T02:57:32;9.10;99.90
55634;DHT22;41504;53.162;6.788;2024-02-21T02:59:58;9.10;99.90
55634;DHT22;41504;53.162;6.788;2024-02-21T03:02:24;9.10;99.90
55634;DHT22;41504;53.162;6.788;2024-02-21T03:04:50;9.10;99.90
55634;DHT22;41504;53.162;6.788;2024-02-21T03:07:16;9.10;99.90
55634;DHT22;41504;53.162;6.788;2024-02-21T03:09:42;9.10;99.90
55634;DHT22;41504;53.162;6.788;2024-02-21T03:12:08;9.10;99.90
55634;DHT22;41504;53.162;6.788;2024-02-21T03:14:35;9.10;99.90
55634;DHT22;41504;53.162;6.788;2024-02-21T03:17:01;9.10;99.90
55634;DHT22;41504;53.162;6.788;2024-02-21T03:19:27;9.10;99.90
55634;DHT22;41504;53.162;6.788;2024-02-21T03:21:53;9.10;99.90
55634;DHT22;41504;53.162;6.788;2024-02-21T03:24:19;9.10;99.90
55634;DHT22;41504;53.162;6.788;2024-02-21T03:26:45;9.10;99.90
55634;DHT22;41504;53.162;6.788;2024-02-21T03:29:14;9.00;99.90
55634;DHT22;41504;53.162;6.788;2024-02-21T03:31:39;9.10;99.90
55634;DHT22;41504;53.162;6.788;2024-02-21T03:34:05;9.10;99.90
55634;DHT22;41504;53.162;6.788;2024-02-21T03:36:31;9.10;99.90
55634;DHT22;41504;53.162;6.788;2024-02-21T03:38:57;9.10;99.90
55634;DHT22;41504;53.162;6.788;2024-02-21T03:41:22;9.00;99.90
55634;DHT22;41504;53.162;6.788;2024-02-21T03:43:48;9.00;99.90
55634;DHT22;41504;53.162;6.788;2024-02-21T03:46:15;9.00;99.90
55634;DHT22;41504;53.162;6.788;2024-02-21T03:48:40;9.10;99.90
55634;DHT22;41504;53.162;6.788;2024-02-21T03:51:07;9.10;99.90
55634;DHT22;41504;53.162;6.788;2024-02-21T03:53:32;9.10;99.90
55634;DHT22;41504;53.162;6.788;2024-02-21T03:56:04;9.10;99.90
55634;DHT22;41504;53.162;6.788;2024-02-21T03:58:33;9.10;99.90
55634;DHT22;41504;53.162;6.788;2024-02-21T04:01:02;9.10;99.90
55634;DHT22;41504;53.162;6.788;2024-02-21T04:03:29;9.10;99.90
55634;DHT22;41504;53.162;6.788;2024-02-21T04:05:54;9.00;99.90
55634;DHT22;41504;53.162;6.788;2024-02-21T04:08:21;9.10;99.90
55634;DHT22;41504;53.162;6.788;2024-02-21T04:10:47;9.00;99.90
55634;DHT22;41504;53.162;6.788;2024-02-21T04:13:13;9.00;99.90
55634;DHT22;41504;53.162;6.788;2024-02-21T04:15:38;9.00;99.90
55634;DHT22;41504;53.162;6.788;2024-02-21T04:18:04;9.00;99.90
55634;DHT22;41504;53.162;6.788;2024-02-21T04:20:30;9.00;99.90
55634;DHT22;41504;53.162;6.788;2024-02-21T04:22:59;9.00;99.90
55634;DHT22;41504;53.162;6.788;2024-02-21T04:25:24;9.00;99.90
55634;DHT22;41504;53.162;6.788;2024-02-21T04:27:53;9.00;99.90
55634;DHT22;41504;53.162;6.788;2024-02-21T04:30:19;9.00;99.90
55634;DHT22;41504;53.162;6.788;2024-02-21T04:32:45;8.90;99.90
55634;DHT22;41504;53.162;6.788;2024-02-21T04:35:10;9.00;99.90
55634;DHT22;41504;53.162;6.788;2024-02-21T04:37:36;8.90;99.90
55634;DHT22;41504;53.162;6.788;2024-02-21T04:40:02;8.90;99.90
55634;DHT22;41504;53.162;6.788;2024-02-21T04:42:27;8.90;99.90
55634;DHT22;41504;53.162;6.788;2024-02-21T04:44:53;8.90;99.90
55634;DHT22;41504;53.162;6.788;2024-02-21T04:47:19;8.90;99.90
55634;DHT22;41504;53.162;6.788;2024-02-21T04:49:45;8.90;99.90
55634;DHT22;41504;53.162;6.788;2024-02-21T04:52:11;8.90;99.90
55634;DHT22;41504;53.162;6.788;2024-02-21T04:54:37;8.90;99.90
55634;DHT22;41504;53.162;6.788;2024-02-21T04:57:03;8.90;99.90
55634;DHT22;41504;53.162;6.788;2024-02-21T04:59:29;8.90;99.90
55634;DHT22;41504;53.162;6.788;2024-02-21T05:01:58;8.90;99.90
55634;DHT22;41504;53.162;6.788;2024-02-21T05:04:24;8.90;99.90
55634;DHT22;41504;53.162;6.788;2024-02-21T05:06:50;8.90;99.90
55634;DHT22;41504;53.162;6.788;2024-02-21T05:09:15;8.90;99.90
55634;DHT22;41504;53.162;6.788;2024-02-21T05:11:41;8.90;99.90
55634;DHT22;41504;53.162;6.788;2024-02-21T05:14:07;8.90;99.90
55634;DHT22;41504;53.162;6.788;2024-02-21T05:16:33;9.00;99.90
55634;DHT22;41504;53.162;6.788;2024-02-21T05:18:58;9.00;99.90
55634;DHT22;41504;53.162;6.788;2024-02-21T05:21:24;9.00;99.90
55634;DHT22;41504;53.162;6.788;2024-02-21T05:23:54;9.00;99.90
55634;DHT22;41504;53.162;6.788;2024-02-21T05:26:25;9.00;99.90
55634;DHT22;41504;53.162;6.788;2024-02-21T05:28:52;9.00;99.90
55634;DHT22;41504;53.162;6.788;2024-02-21T05:31:18;9.00;99.90
55634;DHT22;41504;53.162;6.788;2024-02-21T05:33:44;9.00;99.90
55634;DHT22;41504;53.162;6.788;2024-02-21T05:36:11;9.00;99.90
55634;DHT22;41504;53.162;6.788;2024-02-21T05:38:37;9.00;99.90
55634;DHT22;41504;53.162;6.788;2024-02-21T05:41:03;9.00;99.90
55634;DHT22;41504;53.162;6.788;2024-02-21T05:43:29;9.00;99.90
55634;DHT22;41504;53.162;6.788;2024-02-21T05:45:57;9.00;99.90
55634;DHT22;41504;53.162;6.788;2024-02-21T05:48:23;9.00;99.90
55634;DHT22;41504;53.162;6.788;2024-02-21T05:50:49;9.00;99.90
55634;DHT22;41504;53.162;6.788;2024-02-21T05:53:15;9.00;99.90
55634;DHT22;41504;53.162;6.788;2024-02-21T05:55:41;9.00;99.90
55634;DHT22;41504;53.162;6.788;2024-02-21T05:58:07;9.10;99.90
55634;DHT22;41504;53.162;6.788;2024-02-21T06:00:33;9.00;99.90
55634;DHT22;41504;53.162;6.788;2024-02-21T06:02:59;9.00;99.90
55634;DHT22;41504;53.162;6.788;2024-02-21T06:05:24;9.00;99.90
55634;DHT22;41504;53.162;6.788;2024-02-21T06:07:50;9.00;99.90
55634;DHT22;41504;53.162;6.788;2024-02-21T06:10:16;9.00;99.90
55634;DHT22;41504;53.162;6.788;2024-02-21T06:12:42;9.00;99.90
55634;DHT22;41504;53.162;6.788;2024-02-21T06:15:08;9.10;99.90
55634;DHT22;41504;53.162;6.788;2024-02-21T06:17:34;9.00;99.90
55634;DHT22;41504;53.162;6.788;2024-02-21T06:20:00;9.00;99.90
55634;DHT22;41504;53.162;6.788;2024-02-21T06:22:30;9.00;99.90
55634;DHT22;41504;53.162;6.788;2024-02-21T06:24:56;9.00;99.90
55634;DHT22;41504;53.162;6.788;2024-02-21T06:27:21;9.00;99.90
55634;DHT22;41504;53.162;6.788;2024-02-21T06:29:47;9.00;99.90
55634;DHT22;41504;53.162;6.788;2024-02-21T06:32:13;9.00;99.90
55634;DHT22;41504;53.162;6.788;2024-02-21T06:34:39;9.00;99.90
55634;DHT22;41504;53.162;6.788;2024-02-21T06:37:04;9.00;99.90
55634;DHT22;41504;53.162;6.788;2024-02-21T06:39:30;9.00;99.90
55634;DHT22;41504;53.162;6.788;2024-02-21T06:41:56;9.00;99.90
55634;DHT22;41504;53.162;6.788;2024-02-21T06:44:22;9.00;99.90
55634;DHT22;41504;53.162;6.788;2024-02-21T06:46:48;9.00;99.90
55634;DHT22;41504;53.162;6.788;2024-02-21T06:49:16;9.00;99.90
55634;DHT22;41504;53.162;6.788;2024-02-21T06:51:42;9.00;99.90
55634;DHT22;41504;53.162;6.788;2024-02-21T06:54:09;9.00;99.90
55634;DHT22;41504;53.162;6.788;2024-02-21T06:56:36;9.00;99.90
55634;DHT22;41504;53.162;6.788;2024-02-21T06:59:02;9.00;99.90
55634;DHT22;41504;53.162;6.788;2024-02-21T07:01:29;9.00;99.90
55634;DHT22;41504;53.162;6.788;2024-02-21T07:03:58;9.00;99.90
55634;DHT22;41504;53.162;6.788;2024-02-21T07:06:24;9.10;99.90
55634;DHT22;41504;53.162;6.788;2024-02-21T07:08:49;8.90;99.90
55634;DHT22;41504;53.162;6.788;2024-02-21T07:11:15;9.00;99.90
55634;DHT22;41504;53.162;6.788;2024-02-21T07:13:41;9.00;99.90
55634;DHT22;41504;53.162;6.788;2024-02-21T07:16:07;9.00;99.90
55634;DHT22;41504;53.162;6.788;2024-02-21T07:18:34;9.00;99.90
55634;DHT22;41504;53.162;6.788;2024-02-21T07:20:59;9.00;99.90
55634;DHT22;41504;53.162;6.788;2024-02-21T07:23:28;9.00;99.90
55634;DHT22;41504;53.162;6.788;2024-02-21T07:25:54;9.00;99.90
55634;DHT22;41504;53.162;6.788;2024-02-21T07:28:19;9.00;99.90
55634;DHT22;41504;53.162;6.788;2024-02-21T07:30:45;9.00;99.90
55634;DHT22;41504;53.162;6.788;2024-02-21T07:33:11;9.00;99.90
55634;DHT22;41504;53.162;6.788;2024-02-21T07:35:36;9.00;99.90
55634;DHT22;41504;53.162;6.788;2024-02-21T07:38:07;9.00;99.90
55634;DHT22;41504;53.162;6.788;2024-02-21T07:40:38;9.00;99.90
55634;DHT22;41504;53.162;6.788;2024-02-21T07:43:03;9.00;99.90
55634;DHT22;41504;53.162;6.788;2024-02-21T07:45:29;9.00;99.90
55634;DHT22;41504;53.162;6.788;2024-02-21T07:47:55;9.00;99.90
55634;DHT22;41504;53.162;6.788;2024-02-21T07:50:39;9.00;99.90
55634;DHT22;41504;53.162;6.788;2024-02-21T07:53:46;9.00;99.90
55634;DHT22;41504;53.162;6.788;2024-02-21T07:56:16;9.00;99.90
55634;DHT22;41504;53.162;6.788;2024-02-21T07:58:44;9.00;99.90
55634;DHT22;41504;53.162;6.788;2024-02-21T08:01:10;9.00;99.90
55634;DHT22;41504;53.162;6.788;2024-02-21T08:03:36;9.00;99.90
55634;DHT22;41504;53.162;6.788;2024-02-21T08:06:03;9.00;99.90
55634;DHT22;41504;53.162;6.788;2024-02-21T08:08:29;9.10;99.90
55634;DHT22;41504;53.162;6.788;2024-02-21T08:10:55;9.10;99.90
55634;DHT22;41504;53.162;6.788;2024-02-21T08:13:21;9.10;99.90
55634;DHT22;41504;53.162;6.788;2024-02-21T08:15:47;9.10;99.90
55634;DHT22;41504;53.162;6.788;2024-02-21T08:18:12;9.10;99.90
55634;DHT22;41504;53.162;6.788;2024-02-21T08:20:38;9.10;99.90
55634;DHT22;41504;53.162;6.788;2024-02-21T08:23:04;9.10;99.90
55634;DHT22;41504;53.162;6.788;2024-02-21T08:25:29;9.10;99.90
55634;DHT22;41504;53.162;6.788;2024-02-21T08:27:58;9.10;99.90
55634;DHT22;41504;53.162;6.788;2024-02-21T08:30:24;9.20;99.90
55634;DHT22;41504;53.162;6.788;2024-02-21T08:32:49;9.10;99.90
55634;DHT22;41504;53.162;6.788;2024-02-21T08:35:15;9.10;99.90
55634;DHT22;41504;53.162;6.788;2024-02-21T08:37:44;9.10;99.90
55634;DHT22;41504;53.162;6.788;2024-02-21T08:40:10;9.10;99.90
55634;DHT22;41504;53.162;6.788;2024-02-21T08:42:36;9.10;99.90
55634;DHT22;41504;53.162;6.788;2024-02-21T08:45:04;9.10;99.90
55634;DHT22;41504;53.162;6.788;2024-02-21T08:47:30;9.10;99.90
55634;DHT22;41504;53.162;6.788;2024-02-21T08:49:56;9.10;99.90
55634;DHT22;41504;53.162;6.788;2024-02-21T08:52:21;9.10;99.90
55634;DHT22;41504;53.162;6.788;2024-02-21T08:54:47;9.10;99.90
55634;DHT22;41504;53.162;6.788;2024-02-21T08:57:13;9.10;99.90
55634;DHT22;41504;53.162;6.788;2024-02-21T08:59:41;9.10;99.90
55634;DHT22;41504;53.162;6.788;2024-02-21T09:02:07;9.10;99.90
55634;DHT22;41504;53.162;6.788;2024-02-21T09:04:34;9.10;99.90
55634;DHT22;41504;53.162;6.788;2024-02-21T09:07:00;9.10;99.90
55634;DHT22;41504;53.162;6.788;2024-02-21T09:09:26;9.10;99.90
55634;DHT22;41504;53.162;6.788;2024-02-21T09:11:53;9.10;99.90
55634;DHT22;41504;53.162;6.788;2024-02-21T09:14:19;9.10;99.90
55634;DHT22;41504;53.162;6.788;2024-02-21T09:16:45;9.00;99.90
55634;DHT22;41504;53.162;6.788;2024-02-21T09:19:11;9.10;99.90
55634;DHT22;41504;53.162;6.788;2024-02-21T09:21:37;9.10;99.90
55634;DHT22;41504;53.162;6.788;2024-02-21T09:24:04;9.10;99.90
55634;DHT22;41504;53.162;6.788;2024-02-21T09:26:30;9.10;99.90
55634;DHT22;41504;53.162;6.788;2024-02-21T09:28:56;9.10;99.90
55634;DHT22;41504;53.162;6.788;2024-02-21T09:31:22;9.10;99.90
55634;DHT22;41504;53.162;6.788;2024-02-21T09:33:47;9.10;99.90
55634;DHT22;41504;53.162;6.788;2024-02-21T09:36:14;9.10;99.90
55634;DHT22;41504;53.162;6.788;2024-02-21T09:38:40;9.20;99.90
55634;DHT22;41504;53.162;6.788;2024-02-21T09:41:18;9.10;99.90
55634;DHT22;41504;53.162;6.788;2024-02-21T09:43:44;9.20;99.90
55634;DHT22;41504;53.162;6.788;2024-02-21T09:46:16;9.10;99.90
55634;DHT22;41504;53.162;6.788;2024-02-21T09:51:31;9.10;99.90
55634;DHT22;41504;53.162;6.788;2024-02-21T09:54:02;9.10;99.90
55634;DHT22;41504;53.162;6.788;2024-02-21T09:56:28;9.10;99.90
55634;DHT22;41504;53.162;6.788;2024-02-21T09:58:54;9.10;99.90
55634;DHT22;41504;53.162;6.788;2024-02-21T10:01:20;9.10;99.90
55634;DHT22;41504;53.162;6.788;2024-02-21T10:03:46;9.10;99.90
55634;DHT22;41504;53.162;6.788;2024-02-21T10:06:12;9.10;99.90
55634;DHT22;41504;53.162;6.788;2024-02-21T10:08:37;9.10;99.90
55634;DHT22;41504;53.162;6.788;2024-02-21T10:11:03;9.20;99.90
55634;DHT22;41504;53.162;6.788;2024-02-21T10:13:30;9.10;99.90
55634;DHT22;41504;53.162;6.788;2024-02-21T10:16:06;9.20;99.90
55634;DHT22;41504;53.162;6.788;2024-02-21T10:18:33;9.20;99.90
55634;DHT22;41504;53.162;6.788;2024-02-21T10:21:07;9.20;99.90
55634;DHT22;41504;53.162;6.788;2024-02-21T10:23:45;9.20;99.90
55634;DHT22;41504;53.162;6.788;2024-02-21T10:26:11;9.20;99.90
55634;DHT22;41504;53.162;6.788;2024-02-21T10:28:38;9.20;99.90
55634;DHT22;41504;53.162;6.788;2024-02-21T10:31:11;9.20;99.90
55634;DHT22;41504;53.162;6.788;2024-02-21T10:33:37;9.20;99.90
55634;DHT22;41504;53.162;6.788;2024-02-21T10:36:10;9.30;99.90
55634;DHT22;41504;53.162;6.788;2024-02-21T10:38:37;9.30;99.90
55634;DHT22;41504;53.162;6.788;2024-02-21T10:41:06;9.30;99.90
55634;DHT22;41504;53.162;6.788;2024-02-21T10:43:40;9.30;99.90
55634;DHT22;41504;53.162;6.788;2024-02-21T10:46:07;9.40;99.90
55634;DHT22;41504;53.162;6.788;2024-02-21T10:48:45;9.40;99.90
55634;DHT22;41504;53.162;6.788;2024-02-21T10:51:18;9.40;99.90
55634;DHT22;41504;53.162;6.788;2024-02-21T10:56:29;9.50;99.90
55634;DHT22;41504;53.162;6.788;2024-02-21T10:58:57;9.60;99.90
55634;DHT22;41504;53.162;6.788;2024-02-21T11:01:23;9.60;99.90
55634;DHT22;41504;53.162;6.788;2024-02-21T11:03:51;9.60;99.90
55634;DHT22;41504;53.162;6.788;2024-02-21T11:06:19;9.70;99.90
55634;DHT22;41504;53.162;6.788;2024-02-21T11:08:46;9.70;99.90
55634;DHT22;41504;53.162;6.788;2024-02-21T11:11:13;9.80;99.90
55634;DHT22;41504;53.162;6.788;2024-02-21T11:13:44;9.80;99.90
55634;DHT22;41504;53.162;6.788;2024-02-21T11:16:21;9.80;99.90
55634;DHT22;41504;53.162;6.788;2024-02-21T11:18:47;9.90;99.90
55634;DHT22;41504;53.162;6.788;2024-02-21T11:21:13;9.90;99.90
55634;DHT22;41504;53.162;6.788;2024-02-21T11:23:39;10.00;99.90
55634;DHT22;41504;53.162;6.788;2024-02-21T11:26:18;10.00;99.90
55634;DHT22;41504;53.162;6.788;2024-02-21T11:28:45;10.00;99.90
55634;DHT22;41504;53.162;6.788;2024-02-21T11:31:21;10.00;99.90
55634;DHT22;41504;53.162;6.788;2024-02-21T11:33:47;10.10;99.90
55634;DHT22;41504;53.162;6.788;2024-02-21T11:36:25;10.10;99.90
55634;DHT22;41504;53.162;6.788;2024-02-21T11:38:51;10.10;99.90
55634;DHT22;41504;53.162;6.788;2024-02-21T11:41:18;10.10;99.90
55634;DHT22;41504;53.162;6.788;2024-02-21T11:43:48;10.00;99.90
55634;DHT22;41504;53.162;6.788;2024-02-21T11:46:14;10.10;99.90
55634;DHT22;41504;53.162;6.788;2024-02-21T11:48:41;10.00;99.90
55634;DHT22;41504;53.162;6.788;2024-02-21T11:51:08;10.00;99.90
55634;DHT22;41504;53.162;6.788;2024-02-21T11:53:34;9.90;99.90
55634;DHT22;41504;53.162;6.788;2024-02-21T11:56:00;10.00;99.90
55634;DHT22;41504;53.162;6.788;2024-02-21T11:58:28;10.00;99.90
55634;DHT22;41504;53.162;6.788;2024-02-21T12:00:56;10.00;99.90
55634;DHT22;41504;53.162;6.788;2024-02-21T12:03:22;10.00;99.90
55634;DHT22;41504;53.162;6.788;2024-02-21T12:05:48;10.00;99.90
55634;DHT22;41504;53.162;6.788;2024-02-21T12:08:13;9.90;99.90
55634;DHT22;41504;53.162;6.788;2024-02-21T12:10:42;9.90;99.90
55634;DHT22;41504;53.162;6.788;2024-02-21T12:13:11;9.90;99.90
55634;DHT22;41504;53.162;6.788;2024-02-21T12:15:39;9.90;99.90
55634;DHT22;41504;53.162;6.788;2024-02-21T12:18:06;10.00;99.90
55634;DHT22;41504;53.162;6.788;2024-02-21T12:20:32;9.90;99.90
55634;DHT22;41504;53.162;6.788;2024-02-21T12:23:00;9.90;99.90
55634;DHT22;41504;53.162;6.788;2024-02-21T12:25:26;9.90;99.90
55634;DHT22;41504;53.162;6.788;2024-02-21T12:27:54;9.90;99.90
55634;DHT22;41504;53.162;6.788;2024-02-21T12:30:21;10.00;99.90
55634;DHT22;41504;53.162;6.788;2024-02-21T12:32:47;9.90;99.90
55634;DHT22;41504;53.162;6.788;2024-02-21T12:35:17;9.90;99.90
55634;DHT22;41504;53.162;6.788;2024-02-21T12:37:46;9.90;99.90
55634;DHT22;41504;53.162;6.788;2024-02-21T12:40:11;9.80;99.90
55634;DHT22;41504;53.162;6.788;2024-02-21T12:42:38;9.90;99.90
55634;DHT22;41504;53.162;6.788;2024-02-21T12:45:05;9.90;99.90
55634;DHT22;41504;53.162;6.788;2024-02-21T12:47:30;9.90;99.90
55634;DHT22;41504;53.162;6.788;2024-02-21T12:49:56;9.90;99.90
55634;DHT22;41504;53.162;6.788;2024-02-21T12:52:22;9.90;99.90
55634;DHT22;41504;53.162;6.788;2024-02-21T12:54:47;9.90;99.90
55634;DHT22;41504;53.162;6.788;2024-02-21T12:57:13;10.00;99.90
55634;DHT22;41504;53.162;6.788;2024-02-21T12:59:40;10.00;99.90
55634;DHT22;41504;53.162;6.788;2024-02-21T13:02:06;10.00;99.90
55634;DHT22;41504;53.162;6.788;2024-02-21T13:04:31;10.00;99.90
55634;DHT22;41504;53.162;6.788;2024-02-21T13:06:57;10.00;99.90
55634;DHT22;41504;53.162;6.788;2024-02-21T13:09:23;10.00;99.90
55634;DHT22;41504;53.162;6.788;2024-02-21T13:11:48;9.90;99.90
55634;DHT22;41504;53.162;6.788;2024-02-21T13:14:16;9.90;99.90
55634;DHT22;41504;53.162;6.788;2024-02-21T13:16:42;9.90;99.90
55634;DHT22;41504;53.162;6.788;2024-02-21T13:19:08;9.90;99.90
55634;DHT22;41504;53.162;6.788;2024-02-21T13:21:35;9.90;99.90
55634;DHT22;41504;53.162;6.788;2024-02-21T13:24:01;10.00;99.90
55634;DHT22;41504;53.162;6.788;2024-02-21T13:26:26;10.00;99.90
55634;DHT22;41504;53.162;6.788;2024-02-21T13:28:53;10.00;99.90
55634;DHT22;41504;53.162;6.788;2024-02-21T13:31:19;10.00;99.90
55634;DHT22;41504;53.162;6.788;2024-02-21T13:33:44;10.00;99.90
55634;DHT22;41504;53.162;6.788;2024-02-21T13:36:10;10.10;99.90
55634;DHT22;41504;53.162;6.788;2024-02-21T13:38:36;10.10;99.90
55634;DHT22;41504;53.162;6.788;2024-02-21T13:41:05;10.10;99.90
55634;DHT22;41504;53.162;6.788;2024-02-21T13:43:31;10.20;99.90
55634;DHT22;41504;53.162;6.788;2024-02-21T13:45:58;10.20;99.90
55634;DHT22;41504;53.162;6.788;2024-02-21T13:48:24;10.30;99.90
55634;DHT22;41504;53.162;6.788;2024-02-21T13:50:53;10.30;99.90
55634;DHT22;41504;53.162;6.788;2024-02-21T13:53:19;10.30;99.90
55634;DHT22;41504;53.162;6.788;2024-02-21T13:55:46;10.30;99.90
55634;DHT22;41504;53.162;6.788;2024-02-21T13:58:11;10.20;99.90
55634;DHT22;41504;53.162;6.788;2024-02-21T14:00:37;10.30;99.90
55634;DHT22;41504;53.162;6.788;2024-02-21T14:03:03;10.20;99.90
55634;DHT22;41504;53.162;6.788;2024-02-21T14:05:29;10.20;99.90
55634;DHT22;41504;53.162;6.788;2024-02-21T14:07:58;10.20;99.90
55634;DHT22;41504;53.162;6.788;2024-02-21T14:10:24;10.20;99.90
55634;DHT22;41504;53.162;6.788;2024-02-21T14:12:49;10.20;99.90
55634;DHT22;41504;53.162;6.788;2024-02-21T14:15:15;10.20;99.90
55634;DHT22;41504;53.162;6.788;2024-02-21T14:17:44;10.10;99.90
55634;DHT22;41504;53.162;6.788;2024-02-21T14:20:10;10.20;99.90
55634;DHT22;41504;53.162;6.788;2024-02-21T14:22:35;10.10;99.90
55634;DHT22;41504;53.162;6.788;2024-02-21T14:25:03;10.10;99.90
55634;DHT22;41504;53.162;6.788;2024-02-21T14:27:32;10.20;99.90
55634;DHT22;41504;53.162;6.788;2024-02-21T14:29:58;10.10;99.90
55634;DHT22;41504;53.162;6.788;2024-02-21T14:32:24;10.10;99.90
55634;DHT22;41504;53.162;6.788;2024-02-21T14:34:49;10.10;99.90
55634;DHT22;41504;53.162;6.788;2024-02-21T14:37:16;10.10;99.90
55634;DHT22;41504;53.162;6.788;2024-02-21T14:39:41;10.10;99.90
55634;DHT22;41504;53.162;6.788;2024-02-21T14:42:07;10.10;99.90
55634;DHT22;41504;53.162;6.788;2024-02-21T14:44:36;10.10;99.90
55634;DHT22;41504;53.162;6.788;2024-02-21T14:47:03;10.00;99.90
55634;DHT22;41504;53.162;6.788;2024-02-21T14:49:31;10.00;99.90
55634;DHT22;41504;53.162;6.788;2024-02-21T14:51:57;10.00;99.90
55634;DHT22;41504;53.162;6.788;2024-02-21T14:54:23;10.00;99.90
55634;DHT22;41504;53.162;6.788;2024-02-21T14:56:49;10.00;99.90
55634;DHT22;41504;53.162;6.788;2024-02-21T14:59:15;9.90;99.90
55634;DHT22;41504;53.162;6.788;2024-02-21T15:01:42;9.90;99.90
55634;DHT22;41504;53.162;6.788;2024-02-21T15:04:08;9.90;99.90
55634;DHT22;41504;53.162;6.788;2024-02-21T15:06:34;9.90;99.90
55634;DHT22;41504;53.162;6.788;2024-02-21T15:09:02;9.90;99.90
55634;DHT22;41504;53.162;6.788;2024-02-21T15:11:29;9.80;99.90
55634;DHT22;41504;53.162;6.788;2024-02-21T15:13:55;9.80;99.90
55634;DHT22;41504;53.162;6.788;2024-02-21T15:16:20;9.80;99.90
55634;DHT22;41504;53.162;6.788;2024-02-21T15:18:46;9.80;99.90
55634;DHT22;41504;53.162;6.788;2024-02-21T15:21:12;9.80;99.90
55634;DHT22;41504;53.162;6.788;2024-02-21T15:23:40;9.80;99.90
55634;DHT22;41504;53.162;6.788;2024-02-21T15:26:06;9.70;99.90
55634;DHT22;41504;53.162;6.788;2024-02-21T15:28:32;9.70;99.90
55634;DHT22;41504;53.162;6.788;2024-02-21T15:30:58;9.70;99.90
55634;DHT22;41504;53.162;6.788;2024-02-21T15:33:23;9.70;99.90
55634;DHT22;41504;53.162;6.788;2024-02-21T15:35:49;9.70;99.90
55634;DHT22;41504;53.162;6.788;2024-02-21T15:38:16;9.70;99.90
55634;DHT22;41504;53.162;6.788;2024-02-21T15:40:41;9.70;99.90
55634;DHT22;41504;53.162;6.788;2024-02-21T15:43:07;9.70;99.90
55634;DHT22;41504;53.162;6.788;2024-02-21T15:45:34;9.70;99.90
55634;DHT22;41504;53.162;6.788;2024-02-21T15:47:59;9.70;99.90